createdAt,value
2022-09-14T00:01:23.653Z,100113.28
2022-09-14T00:03:47.672Z,100113.38
2022-09-14T00:06:17.258Z,100120.50
2022-09-14T00:08:45.245Z,100111.66
2022-09-14T00:11:15.782Z,100109.91
2022-09-14T00:13:46.268Z,100102.84
2022-09-14T00:16:15.961Z,100109.16
2022-09-14T00:18:44.605Z,100098.50
2022-09-14T00:21:13.455Z,100103.03
2022-09-14T00:23:43.092Z,100105.81
2022-09-14T00:26:15.443Z,100097.88
2022-09-14T00:28:46.840Z,100099.78
2022-09-14T00:31:15.749Z,100097.13
2022-09-14T00:33:44.887Z,100090.09
2022-09-14T00:36:14.840Z,100082.09
2022-09-14T00:38:42.931Z,100089.22
2022-09-14T00:41:16.350Z,100079.50
2022-09-14T00:43:58.358Z,100080.41
2022-09-14T00:46:27.650Z,100073.34
2022-09-14T00:48:57.350Z,100068.94
2022-09-14T00:51:25.802Z,100063.63
2022-09-14T00:53:53.754Z,100076.97
2022-09-14T00:56:22.801Z,100074.38
2022-09-14T00:58:52.274Z,100073.53
2022-09-14T01:01:20.357Z,100069.19
2022-09-14T01:03:48.840Z,100067.53
2022-09-14T01:06:24.748Z,100071.16
2022-09-14T01:09:05.416Z,100061.50
2022-09-14T01:11:51.601Z,100068.66
2022-09-14T01:14:31.666Z,100058.97
2022-09-14T01:17:07.288Z,100064.31
2022-09-14T01:19:55.319Z,100063.47
2022-09-14T01:22:27.591Z,100063.50
2022-09-14T01:25:00.942Z,100060.91
2022-09-14T01:27:35.428Z,100064.50
2022-09-14T01:30:07.987Z,100064.56
2022-09-14T01:32:43.303Z,100061.19
2022-09-14T01:35:18.903Z,100048.88
2022-09-14T01:37:50.742Z,100061.41
2022-09-14T01:40:25.031Z,100062.38
2022-09-14T01:43:00.895Z,100062.50
2022-09-14T01:45:30.255Z,100067.88
2022-09-14T01:48:03.489Z,100067.91
2022-09-14T01:50:39.136Z,100068.91
2022-09-14T01:53:11.446Z,100071.63
2022-09-14T01:55:46.995Z,100070.75
2022-09-14T01:58:20.761Z,100065.47
2022-09-14T02:00:51.673Z,100065.53
2022-09-14T02:03:23.204Z,100065.56
2022-09-14T02:05:59.168Z,100064.66
2022-09-14T02:08:30.351Z,100061.09
2022-09-14T02:10:58.935Z,100049.59
2022-09-14T02:13:28.350Z,100050.44
2022-09-14T02:15:56.678Z,100055.78
2022-09-14T02:18:24.596Z,100054.91
2022-09-14T02:20:56.703Z,100055.78
2022-09-14T02:23:24.721Z,100047.78
2022-09-14T02:25:52.894Z,100046.91
2022-09-14T02:28:21.684Z,100040.72
2022-09-14T02:31:02.196Z,100038.09
2022-09-14T02:33:36.494Z,100031.94
2022-09-14T02:36:11.417Z,100023.97
2022-09-14T02:38:47.382Z,100018.69
2022-09-14T02:41:20.945Z,100024.91
2022-09-14T02:43:55.989Z,100017.88
2022-09-14T02:46:38.075Z,100017.91
2022-09-14T02:49:16.149Z,100026.78
2022-09-14T02:51:50.220Z,100015.28
2022-09-14T02:54:22.720Z,100018.94
2022-09-14T02:56:50.473Z,100010.97
2022-09-14T02:59:18.604Z,100019.00
2022-09-14T03:01:47.690Z,100028.84
2022-09-14T03:04:15.471Z,100029.81
2022-09-14T03:06:43.087Z,100024.56
2022-09-14T03:09:10.706Z,100027.25
2022-09-14T03:11:38.419Z,100024.66
2022-09-14T03:14:06.072Z,100022.00
2022-09-14T03:16:33.820Z,100025.59
2022-09-14T03:19:02.826Z,100019.41
2022-09-14T03:21:30.483Z,100021.22
2022-09-14T03:23:58.263Z,100023.88
2022-09-14T03:26:29.180Z,100023.91
2022-09-14T03:28:58.519Z,100004.41
2022-09-14T03:31:27.382Z,99998.22
2022-09-14T03:33:56.518Z,99997.31
2022-09-14T03:36:27.481Z,100000.06
2022-09-14T03:38:57.948Z,99996.50
2022-09-14T03:41:25.937Z,100000.94
2022-09-14T03:43:53.796Z,99993.84
2022-09-14T03:46:23.359Z,99999.19
2022-09-14T03:48:51.685Z,99989.44
2022-09-14T03:51:19.493Z,99992.97
2022-09-14T03:53:48.551Z,99988.50
2022-09-14T03:56:19.323Z,99983.19
2022-09-14T03:58:48.793Z,99975.19
2022-09-14T04:01:18.948Z,99977.84
2022-09-14T04:03:47.165Z,99976.97
2022-09-14T04:06:16.041Z,99979.59
2022-09-14T04:08:45.070Z,99974.31
2022-09-14T04:11:16.533Z,99969.84
2022-09-14T04:13:45.174Z,99962.75
2022-09-14T04:16:13.713Z,99954.84
2022-09-14T04:18:41.438Z,99959.22
2022-09-14T04:21:14.194Z,99964.59
2022-09-14T04:24:10.199Z,99950.41
2022-09-14T04:26:31.846Z,99955.75
2022-09-14T04:28:59.876Z,99968.16
2022-09-14T04:31:27.606Z,99966.41
2022-09-14T04:33:57.149Z,99981.47
2022-09-14T04:36:28.634Z,99981.47
2022-09-14T04:38:58.231Z,99969.09
2022-09-14T04:41:26.615Z,99966.41
2022-09-14T04:43:56.814Z,99969.06
2022-09-14T04:46:26.529Z,99977.91
2022-09-14T04:48:54.753Z,99982.31
2022-09-14T04:51:24.612Z,99977.91
2022-09-14T04:53:54.217Z,99972.59
2022-09-14T04:56:24.050Z,99972.56
2022-09-14T04:58:58.503Z,99964.59
2022-09-14T05:01:28.202Z,99965.47
2022-09-14T05:03:56.633Z,99966.34
2022-09-14T05:06:26.587Z,99963.66
2022-09-14T05:08:55.835Z,99957.41
2022-09-14T05:11:27.369Z,99953.88
2022-09-14T05:13:58.141Z,99953.88
2022-09-14T05:16:27.595Z,99957.38
2022-09-14T05:18:56.812Z,99948.53
2022-09-14T05:21:25.346Z,99951.16
2022-09-14T05:23:57.159Z,99953.78
2022-09-14T05:26:25.744Z,99954.63
2022-09-14T05:28:54.990Z,99952.84
2022-09-14T05:31:25.166Z,99949.28
2022-09-14T05:33:53.674Z,99940.34
2022-09-14T05:36:21.698Z,99945.63
2022-09-14T05:38:49.445Z,99941.16
2022-09-14T05:41:17.523Z,99937.59
2022-09-14T05:43:45.775Z,99936.66
2022-09-14T05:46:15.333Z,99941.91
2022-09-14T05:48:44.708Z,99938.31
2022-09-14T05:51:14.800Z,99947.09
2022-09-14T05:53:43.078Z,99948.84
2022-09-14T05:56:12.859Z,99948.78
2022-09-14T05:58:42.088Z,99959.38
2022-09-14T06:01:10.736Z,99956.72
2022-09-14T06:03:39.327Z,99955.72
2022-09-14T06:06:09.971Z,99944.19
2022-09-14T06:08:38.090Z,99941.47
2022-09-14T06:11:07.400Z,99938.66
2022-09-14T06:13:35.500Z,99945.69
2022-09-14T06:16:03.962Z,99943.81
2022-09-14T06:18:35.945Z,99942.78
2022-09-14T06:21:04.369Z,99950.69
2022-09-14T06:23:33.890Z,99953.19
2022-09-14T06:26:03.430Z,99951.34
2022-09-14T06:28:31.646Z,99954.84
2022-09-14T06:30:59.485Z,99953.81
2022-09-14T06:33:27.391Z,99952.81
2022-09-14T06:35:56.753Z,99943.84
2022-09-14T06:38:25.125Z,99957.00
2022-09-14T06:40:56.336Z,99948.88
2022-09-14T06:43:24.634Z,99948.66
2022-09-14T06:46:00.220Z,99947.56
2022-09-14T06:48:28.657Z,99943.88
2022-09-14T06:50:56.912Z,99950.72
2022-09-14T06:53:25.332Z,99948.75
2022-09-14T06:55:54.377Z,99946.69
2022-09-14T06:58:22.050Z,99949.13
2022-09-14T07:00:49.728Z,99948.84
2022-09-14T07:03:17.979Z,99953.06
2022-09-14T07:05:45.865Z,99945.69
2022-09-14T07:08:13.654Z,99948.09
2022-09-14T07:10:43.136Z,99943.41
2022-09-14T07:13:14.650Z,99950.31
2022-09-14T07:15:49.837Z,99964.34
2022-09-14T07:18:17.690Z,99960.56
2022-09-14T07:20:45.381Z,99965.72
2022-09-14T07:23:13.618Z,99956.69
2022-09-14T07:25:42.310Z,99950.25
2022-09-14T07:28:10.545Z,99952.63
2022-09-14T07:30:41.231Z,99937.16
2022-09-14T07:33:08.972Z,99943.06
2022-09-14T07:35:36.694Z,99943.69
2022-09-14T07:38:04.466Z,99943.47
2022-09-14T07:40:32.185Z,99940.63
2022-09-14T07:43:01.831Z,99951.06
2022-09-14T07:45:29.484Z,99948.19
2022-09-14T07:47:59.366Z,99944.44
2022-09-14T07:50:27.048Z,99950.41
2022-09-14T07:52:54.753Z,99949.28
2022-09-14T07:55:22.440Z,99948.03
2022-09-14T07:57:56.530Z,99952.16
2022-09-14T08:00:25.663Z,99956.19
2022-09-14T08:02:55.287Z,99949.75
2022-09-14T08:05:24.781Z,99947.63
2022-09-14T08:07:55.337Z,99951.06
2022-09-14T08:10:23.589Z,99949.09
2022-09-14T08:12:52.445Z,99951.56
2022-09-14T08:15:23.176Z,99946.97
2022-09-14T08:17:52.830Z,99947.66
2022-09-14T08:20:20.634Z,99945.59
2022-09-14T08:22:49.667Z,99951.53
2022-09-14T08:25:17.374Z,99934.41
2022-09-14T08:27:45.059Z,99940.72
2022-09-14T08:30:13.601Z,99944.16
2022-09-14T08:32:41.262Z,99951.94
2022-09-14T08:35:09.834Z,99940.06
2022-09-14T08:37:37.583Z,99938.06
2022-09-14T08:40:07.578Z,99936.19
2022-09-14T08:42:38.157Z,99940.38
2022-09-14T08:45:09.850Z,99929.28
2022-09-14T08:47:39.827Z,99929.91
2022-09-14T08:50:14.340Z,99935.03
2022-09-14T08:52:45.221Z,99933.09
2022-09-14T08:55:26.427Z,99925.88
2022-09-14T08:58:00.905Z,99929.97
2022-09-14T09:00:37.955Z,99919.81
2022-09-14T09:03:37.735Z,99926.66
2022-09-14T09:06:16.099Z,99923.72
2022-09-14T09:08:54.959Z,99924.41
2022-09-14T09:11:29.853Z,99932.38
2022-09-14T09:13:58.773Z,99927.72
2022-09-14T09:16:29.538Z,99926.44
2022-09-14T09:19:03.627Z,99921.47
2022-09-14T09:21:36.405Z,99915.72
2022-09-14T09:24:17.247Z,99913.72
2022-09-14T09:26:46.238Z,99903.91
2022-09-14T09:29:14.354Z,99899.34
2022-09-14T09:32:00.934Z,99906.41
2022-09-14T09:34:52.963Z,99905.19
2022-09-14T09:37:39.997Z,99901.41
2022-09-14T09:40:16.237Z,99901.22
2022-09-14T09:43:08.862Z,99909.81
2022-09-14T09:45:55.669Z,99907.84
2022-09-14T09:48:26.035Z,99916.84
2022-09-14T09:51:08.064Z,99901.69
2022-09-14T09:53:39.519Z,99898.28
2022-09-14T09:56:08.123Z,99902.59
2022-09-14T09:58:38.983Z,99904.09
2022-09-14T10:01:12.413Z,99893.19
2022-09-14T10:03:41.501Z,99886.84
2022-09-14T10:06:11.739Z,99891.00
2022-09-14T10:08:44.795Z,99897.56
2022-09-14T10:11:31.338Z,99875.56
2022-09-14T10:14:01.051Z,99870.47
2022-09-14T10:16:35.623Z,99877.09
2022-09-14T10:19:04.370Z,99877.28
2022-09-14T10:21:32.403Z,99872.69
2022-09-14T10:24:06.616Z,99881.47
2022-09-14T10:26:38.347Z,99884.00
2022-09-14T10:29:35.677Z,99882.03
2022-09-14T10:32:12.600Z,99877.31
2022-09-14T10:34:40.300Z,99874.25
2022-09-14T10:37:21.244Z,99876.66
2022-09-14T10:40:10.879Z,99875.31
2022-09-14T10:42:43.159Z,99872.97
2022-09-14T10:45:20.622Z,99867.72
2022-09-14T10:48:06.291Z,99866.31
2022-09-14T10:50:42.435Z,99862.13
2022-09-14T10:53:20.298Z,99863.63
2022-09-14T10:55:56.593Z,99864.19
2022-09-14T10:58:40.995Z,99864.03
2022-09-14T11:01:23.369Z,99860.69
2022-09-14T11:04:03.060Z,99871.75
2022-09-14T11:06:43.757Z,99870.97
2022-09-14T11:09:21.703Z,99869.16
2022-09-14T11:12:00.059Z,99871.75
2022-09-14T11:14:40.735Z,99870.13
2022-09-14T11:17:44.737Z,99871.13
2022-09-14T11:20:26.665Z,99859.50
2022-09-14T11:23:05.853Z,99860.28
2022-09-14T11:25:42.804Z,99850.72
2022-09-14T11:28:14.851Z,99866.19
2022-09-14T11:30:47.934Z,99867.78
2022-09-14T11:33:21.879Z,99869.53
2022-09-14T11:35:53.006Z,99858.13
2022-09-14T11:38:22.681Z,99858.25
2022-09-14T11:40:56.148Z,99859.28
2022-09-14T11:43:29.024Z,99863.06
2022-09-14T11:46:06.513Z,99865.69
2022-09-14T11:48:43.101Z,99864.84
2022-09-14T11:51:15.857Z,99862.94
2022-09-14T11:53:46.317Z,99852.09
2022-09-14T11:56:26.437Z,99850.41
2022-09-14T11:58:56.583Z,99847.66
2022-09-14T12:01:42.150Z,99857.06
2022-09-14T12:04:14.828Z,99842.72
2022-09-14T12:06:55.117Z,99836.16
2022-09-14T12:09:54.930Z,99836.06
2022-09-14T12:12:37.586Z,99834.03
2022-09-14T12:15:15.882Z,99841.38
2022-09-14T12:17:45.236Z,99837.28
2022-09-14T12:20:38.981Z,99837.28
2022-09-14T12:23:27.104Z,99837.13
2022-09-14T12:25:58.985Z,99829.91
2022-09-14T12:28:49.020Z,99815.94
2022-09-14T12:32:03.194Z,99812.41
2022-09-14T12:34:33.287Z,99818.78
2022-09-14T12:37:11.927Z,99810.88
2022-09-14T12:39:40.052Z,99804.47
2022-09-14T12:42:28.722Z,99805.19
2022-09-14T12:44:56.953Z,99805.00
2022-09-14T12:47:54.860Z,99814.72
2022-09-14T12:50:23.407Z,99813.69
2022-09-14T12:53:15.760Z,99817.47
2022-09-14T12:55:50.548Z,99818.72
2022-09-14T12:58:41.903Z,99822.25
2022-09-14T13:01:24.763Z,99811.50
2022-09-14T13:03:54.753Z,99811.50
2022-09-14T13:06:24.237Z,99802.50
2022-09-14T13:08:57.616Z,99799.81
2022-09-14T13:11:31.857Z,99789.91
2022-09-14T13:14:01.259Z,99789.91
2022-09-14T13:16:39.211Z,99792.59
2022-09-14T13:19:19.748Z,99790.75
2022-09-14T13:21:49.420Z,99771.75
2022-09-14T13:24:24.828Z,99771.75
2022-09-14T13:26:53.391Z,99776.47
2022-09-14T13:29:22.317Z,99775.91
2022-09-14T13:31:50.409Z,99777.97
2022-09-14T13:34:22.891Z,99770.16
2022-09-14T13:36:51.994Z,99768.56
2022-09-14T13:39:26.850Z,99760.81
2022-09-14T13:41:55.776Z,99760.19
2022-09-14T13:44:28.224Z,99756.69
2022-09-14T13:46:58.769Z,99762.16
2022-09-14T13:49:26.982Z,99758.66
2022-09-14T13:52:18.825Z,99754.38
2022-09-14T13:54:47.959Z,99752.81
2022-09-14T13:57:17.692Z,99764.63
2022-09-14T14:00:06.013Z,99760.13
2022-09-14T14:02:36.290Z,99767.41
2022-09-14T14:05:06.096Z,99750.50
2022-09-14T14:07:35.404Z,99752.38
2022-09-14T14:10:04.746Z,99749.91
2022-09-14T14:12:39.327Z,99762.56
2022-09-14T14:15:28.780Z,99756.34
2022-09-14T14:17:56.661Z,99751.03
2022-09-14T14:20:36.486Z,99749.28
2022-09-14T14:23:20.502Z,99755.69
2022-09-14T14:25:54.034Z,99737.09
2022-09-14T14:28:25.340Z,99732.66
2022-09-14T14:30:54.257Z,99730.94
2022-09-14T14:33:22.698Z,99730.16
2022-09-14T14:35:53.446Z,99730.16
2022-09-14T14:38:22.479Z,99725.78
2022-09-14T14:40:54.054Z,99717.00
2022-09-14T14:43:25.230Z,99717.22
2022-09-14T14:45:56.228Z,99727.09
2022-09-14T14:48:23.969Z,99723.56
2022-09-14T14:50:51.889Z,99718.25
2022-09-14T14:53:19.678Z,99709.31
2022-09-14T14:55:48.232Z,99714.84
2022-09-14T14:58:19.716Z,99715.72
2022-09-14T15:00:48.274Z,99708.63
2022-09-14T15:03:18.991Z,99706.84
2022-09-14T15:05:49.228Z,99698.78
2022-09-14T15:08:19.832Z,99697.84
2022-09-14T15:10:47.589Z,99703.25
2022-09-14T15:13:16.670Z,99697.03
2022-09-14T15:15:44.935Z,99690.06
2022-09-14T15:18:12.564Z,99691.97
2022-09-14T15:20:40.298Z,99688.63
2022-09-14T15:23:09.946Z,99693.19
2022-09-14T15:25:37.662Z,99691.63
2022-09-14T15:28:05.386Z,99682.78
2022-09-14T15:30:34.321Z,99689.28
2022-09-14T15:33:01.954Z,99689.59
2022-09-14T15:35:29.669Z,99679.06
2022-09-14T15:37:57.465Z,99682.91
2022-09-14T15:40:25.769Z,99676.00
2022-09-14T15:42:53.916Z,99683.50
2022-09-14T15:45:21.796Z,99689.16
2022-09-14T15:47:50.938Z,99694.72
2022-09-14T15:50:18.773Z,99694.13
2022-09-14T15:52:46.519Z,99694.34
2022-09-14T15:55:14.695Z,99688.31
2022-09-14T15:57:42.520Z,99689.44
2022-09-14T16:00:13.042Z,99698.59
2022-09-14T16:02:51.338Z,99695.31
2022-09-14T16:05:18.982Z,99691.13
2022-09-14T16:07:47.184Z,99689.66
2022-09-14T16:10:14.820Z,99689.88
2022-09-14T16:12:42.628Z,99689.25
2022-09-14T16:15:11.208Z,99687.66
2022-09-14T16:17:38.848Z,99683.34
2022-09-14T16:20:10.044Z,99688.91
2022-09-14T16:22:37.710Z,99682.88
2022-09-14T16:25:06.063Z,99692.84
2022-09-14T16:27:33.899Z,99694.72
2022-09-14T16:30:01.542Z,99692.97
2022-09-14T16:32:29.172Z,99695.88
2022-09-14T16:34:56.910Z,99694.31
2022-09-14T16:37:26.198Z,99691.78
2022-09-14T16:39:53.984Z,99683.94
2022-09-14T16:42:21.642Z,99680.69
2022-09-14T16:44:49.265Z,99670.16
2022-09-14T16:47:16.883Z,99675.69
2022-09-14T16:49:44.552Z,99669.56
2022-09-14T16:52:12.200Z,99675.91
2022-09-14T16:54:41.248Z,99669.81
2022-09-14T16:57:08.900Z,99669.94
2022-09-14T16:59:36.509Z,99671.88
2022-09-14T17:02:04.359Z,99665.72
2022-09-14T17:04:32.250Z,99660.53
2022-09-14T17:07:00.482Z,99667.78
2022-09-14T17:09:30.128Z,99671.44
2022-09-14T17:11:59.816Z,99668.09
2022-09-14T17:14:30.150Z,99664.72
2022-09-14T17:17:00.451Z,99670.22
2022-09-14T17:19:28.919Z,99666.81
2022-09-14T17:21:56.805Z,99661.56
2022-09-14T17:24:25.876Z,99665.16
2022-09-14T17:26:53.508Z,99664.38
2022-09-14T17:29:22.515Z,99659.06
2022-09-14T17:31:50.692Z,99664.47
2022-09-14T17:34:18.635Z,99658.31
2022-09-14T17:36:46.538Z,99670.91
2022-09-14T17:39:15.499Z,99664.75
2022-09-14T17:41:44.045Z,99659.44
2022-09-14T17:44:13.413Z,99661.44
2022-09-14T17:46:51.118Z,99666.81
2022-09-14T17:49:20.801Z,99661.66
2022-09-14T17:51:49.148Z,99662.66
2022-09-14T17:54:17.705Z,99649.41
2022-09-14T17:56:45.475Z,99650.38
2022-09-14T17:59:15.865Z,99648.69
2022-09-14T18:01:44.814Z,99655.91
2022-09-14T18:04:14.668Z,99648.94
2022-09-14T18:06:45.138Z,99656.09
2022-09-14T18:09:14.829Z,99649.94
2022-09-14T18:11:43.228Z,99642.81
2022-09-14T18:14:12.720Z,99648.22
2022-09-14T18:16:40.923Z,99650.09
2022-09-14T18:19:10.240Z,99650.09
2022-09-14T18:21:37.883Z,99646.56
2022-09-14T18:24:05.725Z,99645.72
2022-09-14T18:26:33.533Z,99641.25
2022-09-14T18:29:01.110Z,99631.50
2022-09-14T18:31:29.038Z,99646.66
2022-09-14T18:33:59.129Z,99641.38
2022-09-14T18:36:29.975Z,99644.09
2022-09-14T18:38:58.003Z,99645.97
2022-09-14T18:41:25.812Z,99654.03
2022-09-14T18:43:54.019Z,99654.03
2022-09-14T18:46:25.939Z,99661.25
2022-09-14T18:48:57.593Z,99661.31
2022-09-14T18:51:26.065Z,99652.41
2022-09-14T18:53:58.535Z,99655.22
2022-09-14T18:56:26.740Z,99651.69
2022-09-14T18:58:54.612Z,99662.53
2022-09-14T19:01:22.425Z,99664.44
2022-09-14T19:03:50.124Z,99655.63
2022-09-14T19:06:19.672Z,99652.19
2022-09-14T19:08:47.900Z,99662.09
2022-09-14T19:11:18.557Z,99655.00
2022-09-14T19:13:46.847Z,99658.59
2022-09-14T19:16:16.580Z,99654.16
2022-09-14T19:18:45.833Z,99656.97
2022-09-14T19:21:18.930Z,99663.25
2022-09-14T19:23:49.483Z,99664.25
2022-09-14T19:26:20.913Z,99664.31
2022-09-14T19:28:49.006Z,99665.28
2022-09-14T19:31:18.670Z,99668.00
2022-09-14T19:33:46.340Z,99665.41
2022-09-14T19:36:16.130Z,99671.72
2022-09-14T19:38:44.165Z,99678.97
2022-09-14T19:41:12.276Z,99686.13
2022-09-14T19:43:41.280Z,99673.88
2022-09-14T19:46:10.947Z,99673.91
2022-09-14T19:48:39.888Z,99680.31
2022-09-14T19:51:10.017Z,99670.59
2022-09-14T19:53:38.844Z,99670.63
2022-09-14T19:56:10.054Z,99669.81
2022-09-14T19:58:38.818Z,99669.06
2022-09-14T20:01:09.028Z,99668.16
2022-09-14T20:03:38.991Z,99676.22
2022-09-14T20:06:08.611Z,99688.75
2022-09-14T20:08:36.816Z,99690.50
2022-09-14T20:11:05.751Z,99690.56
2022-09-14T20:13:33.600Z,99689.75
2022-09-14T20:16:01.571Z,99695.13
2022-09-14T20:18:32.949Z,99695.19
2022-09-14T20:21:00.532Z,99693.47
2022-09-14T20:23:28.162Z,99699.72
2022-09-14T20:25:55.752Z,99696.22
2022-09-14T20:28:26.539Z,99696.22
2022-09-14T20:30:58.631Z,99691.88
2022-09-14T20:33:26.646Z,99707.03
2022-09-14T20:36:06.677Z,99704.41
2022-09-14T20:38:34.960Z,99700.13
2022-09-14T20:41:05.155Z,99709.03
2022-09-14T20:43:34.073Z,99704.72
2022-09-14T20:46:02.794Z,99705.72
2022-09-14T20:48:31.367Z,99709.34
2022-09-14T20:50:59.071Z,99702.31
2022-09-14T20:53:35.000Z,99707.72
2022-09-14T20:56:04.107Z,99708.66
2022-09-14T20:58:32.165Z,99711.38
2022-09-14T21:01:01.134Z,99714.09
2022-09-14T21:03:28.805Z,99711.47
2022-09-14T21:05:57.094Z,99718.59
2022-09-14T21:08:24.689Z,99718.75
2022-09-14T21:10:53.711Z,99715.22
2022-09-14T21:13:21.483Z,99723.25
2022-09-14T21:15:49.638Z,99719.78
2022-09-14T21:18:20.631Z,99710.91
2022-09-14T21:20:48.444Z,99696.66
2022-09-14T21:23:16.385Z,99703.03
2022-09-14T21:25:43.944Z,99707.50
2022-09-14T21:28:13.600Z,99708.38
2022-09-14T21:30:42.302Z,99710.22
2022-09-14T21:33:09.904Z,99716.47
2022-09-14T21:35:37.483Z,99712.06
2022-09-14T21:38:05.071Z,99707.63
2022-09-14T21:40:32.761Z,99707.69
2022-09-14T21:43:00.377Z,99707.72
2022-09-14T21:45:29.415Z,99709.53
2022-09-14T21:47:56.975Z,99701.56
2022-09-14T21:50:24.540Z,99705.16
2022-09-14T21:52:52.147Z,99704.28
2022-09-14T21:55:19.719Z,99695.41
2022-09-14T21:57:48.406Z,99699.00
2022-09-14T22:00:16.467Z,99706.09
2022-09-14T22:02:45.513Z,99694.59
2022-09-14T22:05:13.121Z,99698.19
2022-09-14T22:07:42.275Z,99701.75
2022-09-14T22:10:10.833Z,99709.78
2022-09-14T22:12:38.434Z,99694.72
2022-09-14T22:15:06.635Z,99691.19
2022-09-14T22:17:34.270Z,99692.16
2022-09-14T22:20:03.621Z,99689.53
2022-09-14T22:22:31.250Z,99683.34
2022-09-14T22:24:58.847Z,99698.47
2022-09-14T22:27:26.470Z,99701.19
2022-09-14T22:29:54.197Z,99698.56
2022-09-14T22:32:22.654Z,99698.56
2022-09-14T22:34:50.710Z,99701.22
2022-09-14T22:37:19.651Z,99701.28
2022-09-14T22:39:47.880Z,99699.50
2022-09-14T22:42:15.659Z,99687.13
2022-09-14T22:44:43.275Z,99690.69
2022-09-14T22:47:10.898Z,99682.78
2022-09-14T22:49:38.484Z,99682.91
2022-09-14T22:52:06.308Z,99678.47
2022-09-14T22:54:35.375Z,99680.31
2022-09-14T22:57:02.984Z,99688.41
2022-09-14T22:59:30.841Z,99689.34
2022-09-14T23:01:58.499Z,99695.63
2022-09-14T23:04:27.311Z,99689.47
2022-09-14T23:06:54.972Z,99693.06
2022-09-14T23:09:23.099Z,99689.63
2022-09-14T23:11:52.390Z,99689.66
2022-09-14T23:14:19.988Z,99691.50
2022-09-14T23:16:48.071Z,99688.84
2022-09-14T23:19:17.980Z,99681.84
2022-09-14T23:21:46.094Z,99678.34
2022-09-14T23:24:14.395Z,99680.22
2022-09-14T23:26:42.082Z,99690.06
2022-09-14T23:29:15.649Z,99695.44
2022-09-14T23:31:43.881Z,99692.84
2022-09-14T23:34:11.691Z,99690.25
2022-09-14T23:36:39.410Z,99684.09
2022-09-14T23:39:07.088Z,99683.31
2022-09-14T23:41:34.722Z,99680.75
2022-09-14T23:44:03.224Z,99691.50
2022-09-14T23:46:32.163Z,99690.75
2022-09-14T23:48:59.762Z,99686.44
2022-09-14T23:51:27.388Z,99676.81
2022-09-14T23:53:54.981Z,99681.34
2022-09-14T23:56:22.633Z,99678.75
2022-09-14T23:58:50.290Z,99685.03
